Kamen'-na-Obi, Russia
Current Conditions -  °F | °C
As of 10:30 AM on Friday 31 Oct 2014 (Local Time) from UNBB Reporting Station
Broken Clouds Broken Clouds  
Wind Chill: -6°   Ceiling: 1200
Heat Index:   Visibility: 6mi
Dew Point: -2°   Wind: 18mph
Humidity: 87%   Direction: 220°SW
Pressure: 30.3"   Gusts: NA
Location:  53.82°N, 81.27°E
Report Text: UNBB 310330Z 22008MPS 9999 BKN012 M00/M02 Q1026 NOSIG RMKQFE747/0996 24890532
Loading
Personal Weather Stations






























Interactive Weather Map
Tropical Storm Tracking
New forecast layout! Learn more

10-Day Weather Forecast

Advertisements
Track Severe Weather on mobile